Time;durP1;ratioP1;P1;durP2;ratioP2;P2;SDS_P1;SDS_P2;PMS_P1;PMS_P2;Temp;Humidity;BMP_temperature;BMP_pressure;BME280_temperature;BME280_humidity;BME280_pressure;Samples;Min_cycle;Max_cycle;Signal;HPM_P1;HPM_P2
2023/05/17 00:02:39;;;;;;;12.23;7.80;;;7.00;99.90;;;;;;2611608;54;20162;-74
2023/05/17 00:08:26;;;;;;;8.10;7.40;;;7.20;99.90;;;;;;2612860;54;20191;-74
2023/05/17 00:14:14;;;;;;;15.17;9.10;;;7.20;99.90;;;;;;2611143;54;20143;-73
2023/05/17 00:20:00;;;;;;;7.27;6.57;;;7.10;99.90;;;;;;2613035;54;20423;-74
2023/05/17 00:25:48;;;;;;;9.10;7.40;;;7.10;99.90;;;;;;2612885;54;20252;-73
2023/05/17 00:31:35;;;;;;;10.10;6.70;;;7.00;99.90;;;;;;2613093;54;20682;-73
2023/05/17 00:37:23;;;;;;;9.83;7.10;;;7.20;99.90;;;;;;2613672;54;20131;-74
2023/05/17 00:43:10;;;;;;;11.83;8.20;;;7.20;99.90;;;;;;2613830;54;20267;-73
2023/05/17 00:48:58;;;;;;;10.27;7.00;;;7.20;99.90;;;;;;2613650;54;20126;-73
2023/05/17 00:58:40;;;;;;;7.63;6.83;;;6.90;99.90;;;;;;2613764;39;20730;-73
2023/05/17 01:04:28;;;;;;;8.00;7.27;;;7.00;99.90;;;;;;2610195;54;20391;-74
2023/05/17 01:10:16;;;;;;;12.07;7.20;;;6.70;99.90;;;;;;2612532;47;20833;-73
2023/05/17 01:16:09;;;;;;;8.40;7.10;;;6.70;99.90;;;;;;2612669;54;20170;-73
2023/05/17 01:28:24;;;;;;;12.60;9.10;;;6.60;99.90;;;;;;2613772;46;20419;-73
2023/05/17 01:34:12;;;;;;;11.80;8.60;;;6.70;99.90;;;;;;2613867;54;20410;-73
2023/05/17 01:40:00;;;;;;;8.60;7.63;;;6.60;99.90;;;;;;2611209;54;20154;-73
2023/05/17 02:02:05;;;;;;;20.10;9.30;;;6.30;99.90;;;;;;2613590;54;20928;-75
2023/05/17 02:07:52;;;;;;;10.47;8.47;;;6.40;99.90;;;;;;2613804;54;20391;-73
2023/05/17 02:13:40;;;;;;;10.93;8.90;;;6.40;99.90;;;;;;2613054;54;20143;-74
2023/05/17 02:19:28;;;;;;;17.30;9.70;;;6.40;99.90;;;;;;2613441;54;20114;-73
2023/05/17 02:25:16;;;;;;;13.37;8.70;;;6.00;99.90;;;;;;2612879;46;20146;-73
2023/05/17 02:31:03;;;;;;;12.93;9.33;;;5.90;99.90;;;;;;2612238;39;20310;-74
2023/05/17 02:36:51;;;;;;;18.83;11.53;;;5.70;99.90;;;;;;2612730;54;20134;-73
2023/05/17 02:42:39;;;;;;;17.37;9.40;;;5.70;99.90;;;;;;2613104;54;20114;-73
2023/05/17 02:48:26;;;;;;;19.23;10.00;;;5.80;99.90;;;;;;2614305;54;20704;-73
2023/05/17 02:54:13;;;;;;;19.20;10.10;;;5.90;99.90;;;;;;2613413;54;20193;-73
2023/05/17 02:56:55;;;;;;;12.53;9.83;;;5.90;99.90;;;;;;2611153;54;20942;-73
2023/05/17 02:59:21;;;;;;;18.10;11.30;;;6.10;99.90;;;;;;2611864;54;20258;-73
2023/05/17 03:05:08;;;;;;;18.83;10.20;;;6.30;99.90;;;;;;2614613;39;20636;-73
2023/05/17 03:10:56;;;;;;;20.43;10.67;;;6.50;99.90;;;;;;2613603;54;20961;-74
2023/05/17 03:16:44;;;;;;;17.87;9.30;;;6.70;99.90;;;;;;2612164;54;20802;-73
2023/05/17 03:22:32;;;;;;;26.57;10.47;;;7.10;99.90;;;;;;2614399;39;20450;-73
2023/05/17 03:28:19;;;;;;;17.30;10.10;;;7.10;99.90;;;;;;2613850;54;20122;-73
2023/05/17 03:34:07;;;;;;;19.63;12.60;;;7.30;99.90;;;;;;2612388;54;20238;-73
2023/05/17 03:39:55;;;;;;;25.30;11.43;;;7.50;99.90;;;;;;2614456;54;20194;-73
2023/05/17 03:45:43;;;;;;;19.13;10.17;;;7.70;99.90;;;;;;2613480;54;20162;-74
2023/05/17 03:51:31;;;;;;;23.13;11.87;;;7.80;99.90;;;;;;2614187;54;20234;-73
2023/05/17 04:01:25;;;;;;;24.50;11.60;;;7.80;99.90;;;;;;2613489;54;20358;-74
2023/05/17 04:07:12;;;;;;;20.90;11.10;;;7.90;99.90;;;;;;2614086;54;20523;-74
2023/05/17 04:13:00;;;;;;;22.93;10.50;;;7.90;99.90;;;;;;2613734;54;20284;-73
2023/05/17 04:18:51;;;;;;;18.60;11.13;;;8.10;99.90;;;;;;2614723;46;20600;-73
2023/05/17 04:24:38;;;;;;;22.40;10.83;;;8.30;99.90;;;;;;2613295;54;20387;-73
2023/05/17 04:30:26;;;;;;;26.37;11.30;;;8.40;99.90;;;;;;2612089;54;20127;-73
2023/05/17 04:36:14;;;;;;;30.17;11.43;;;8.40;99.90;;;;;;2613947;46;20129;-73
2023/05/17 04:42:02;;;;;;;25.17;13.07;;;8.60;99.90;;;;;;2613217;46;20193;-73
2023/05/17 04:47:51;;;;;;;22.33;11.87;;;8.70;99.90;;;;;;2613591;54;20394;-73
2023/05/17 04:53:39;;;;;;;37.43;13.37;;;8.60;99.90;;;;;;2609805;54;20508;-73
2023/05/17 04:56:55;;;;;;;21.03;12.43;;;8.70;99.90;;;;;;2611645;54;20404;-73
2023/05/17 04:59:21;;;;;;;32.30;14.03;;;8.80;99.90;;;;;;2612588;46;20198;-74
2023/05/17 05:05:10;;;;;;;25.47;12.10;;;9.00;99.90;;;;;;2611887;54;20142;-74
2023/05/17 05:10:57;;;;;;;19.23;11.20;;;9.40;99.90;;;;;;2613567;54;20415;-74
2023/05/17 05:16:45;;;;;;;25.87;12.80;;;9.80;99.90;;;;;;2610847;39;20465;-75
2023/05/17 05:22:32;;;;;;;27.93;15.30;;;10.00;99.90;;;;;;2610311;54;20262;-74
2023/05/17 05:28:20;;;;;;;25.17;12.37;;;10.20;99.90;;;;;;2613514;54;20731;-73
2023/05/17 05:34:09;;;;;;;22.90;13.00;;;10.50;99.90;;;;;;2612315;54;20134;-74
2023/05/17 05:39:57;;;;;;;15.17;12.03;;;11.00;99.90;;;;;;2612793;54;20431;-74
2023/05/17 05:45:46;;;;;;;18.40;9.87;;;11.60;99.90;;;;;;2612772;54;20367;-74
2023/05/17 05:51:33;;;;;;;15.23;9.30;;;11.40;99.90;;;;;;2610541;54;20482;-73
2023/05/17 06:01:24;;;;;;;12.50;8.30;;;11.80;99.90;;;;;;2612022;54;20431;-73
2023/05/17 06:07:13;;;;;;;14.40;9.20;;;12.40;99.90;;;;;;2611299;46;20414;-73
2023/05/17 06:13:01;;;;;;;17.83;8.50;;;12.50;99.90;;;;;;2611886;39;20788;-74
2023/05/17 06:18:48;;;;;;;13.67;9.30;;;12.50;99.90;;;;;;2611096;54;20139;-74
2023/05/17 06:24:36;;;;;;;19.03;9.70;;;12.90;99.90;;;;;;2613074;54;20166;-74
2023/05/17 06:30:26;;;;;;;12.27;8.40;;;12.60;99.90;;;;;;2611125;46;20293;-73
2023/05/17 06:36:13;;;;;;;15.57;9.87;;;12.60;99.90;;;;;;2612237;39;20859;-73
2023/05/17 06:42:01;;;;;;;20.40;10.13;;;12.70;99.90;;;;;;2612161;54;20214;-73
2023/05/17 06:47:49;;;;;;;16.03;10.07;;;12.70;99.90;;;;;;2614279;54;20182;-74
2023/05/17 06:53:37;;;;;;;19.67;11.40;;;11.90;99.90;;;;;;2610284;54;20150;-73
2023/05/17 06:56:54;;;;;;;18.97;10.40;;;11.20;99.90;;;;;;2612643;54;20434;-73
2023/05/17 06:59:20;;;;;;;18.70;10.60;;;11.00;99.90;;;;;;2612808;54;20155;-73
2023/05/17 07:05:07;;;;;;;11.17;9.50;;;10.60;99.90;;;;;;2612925;54;20170;-74
2023/05/17 07:10:55;;;;;;;14.70;11.07;;;10.40;99.90;;;;;;2611787;54;20150;-73
2023/05/17 07:16:43;;;;;;;14.63;9.93;;;10.40;99.90;;;;;;2613891;54;20306;-74
2023/05/17 07:22:30;;;;;;;23.53;10.47;;;11.00;99.90;;;;;;2613148;54;20656;-73
2023/05/17 07:28:18;;;;;;;9.83;8.77;;;10.60;99.90;;;;;;2612811;54;20161;-73
2023/05/17 07:34:06;;;;;;;11.40;8.90;;;10.60;99.90;;;;;;2612419;39;20205;-73
2023/05/17 07:39:53;;;;;;;14.10;9.43;;;11.10;99.90;;;;;;2613769;54;20207;-73
2023/05/17 07:45:42;;;;;;;9.43;8.20;;;13.90;99.90;;;;;;2611364;54;21185;-73
2023/05/17 07:51:30;;;;;;;14.43;8.90;;;14.10;99.90;;;;;;2613111;54;20375;-74
2023/05/17 08:01:24;;;;;;;11.30;10.50;;;14.60;70.00;;;;;;2609770;54;20383;-74
2023/05/17 08:07:12;;;;;;;12.03;11.10;;;15.20;55.00;;;;;;2612880;54;20398;-73
2023/05/17 08:12:59;;;;;;;12.80;11.73;;;16.10;38.50;;;;;;2611555;39;20599;-73
2023/05/17 08:18:47;;;;;;;12.63;11.57;;;14.00;30.90;;;;;;2612981;54;20157;-73
2023/05/17 08:24:35;;;;;;;12.33;11.43;;;14.40;30.70;;;;;;2613730;54;20134;-73
2023/05/17 08:30:23;;;;;;;13.50;12.40;;;13.40;39.30;;;;;;2613665;39;20534;-73
2023/05/17 08:36:11;;;;;;;14.47;12.50;;;13.30;41.50;;;;;;2613905;54;20178;-75
2023/05/17 08:42:01;;;;;;;13.50;12.70;;;14.80;35.60;;;;;;2610911;54;20992;-74
2023/05/17 08:47:49;;;;;;;13.77;12.80;;;15.80;29.80;;;;;;2613545;54;20479;-74
2023/05/17 08:53:37;;;;;;;14.10;12.90;;;16.50;23.20;;;;;;2605674;54;20969;-73
2023/05/17 08:56:54;;;;;;;12.23;11.53;;;16.50;21.90;;;;;;2609228;54;20451;-74
2023/05/17 08:59:21;;;;;;;14.90;13.77;;;15.80;22.70;;;;;;2612093;47;21008;-74
2023/05/17 09:05:09;;;;;;;14.30;12.63;;;15.90;17.80;;;;;;2613195;39;20783;-74
2023/05/17 09:10:58;;;;;;;14.60;13.50;;;15.30;22.60;;;;;;2612009;54;20521;-73
2023/05/17 09:16:47;;;;;;;13.43;12.53;;;15.00;24.50;;;;;;2613381;54;20383;-74
2023/05/17 09:22:38;;;;;;;13.57;12.73;;;16.00;19.10;;;;;;2613447;54;20387;-75
2023/05/17 09:28:28;;;;;;;14.37;13.47;;;16.70;15.70;;;;;;2612983;54;20430;-75
2023/05/17 09:34:18;;;;;;;12.90;12.20;;;17.40;12.50;;;;;;2612743;54;20351;-74
2023/05/17 09:40:06;;;;;;;14.53;13.57;;;16.00;17.10;;;;;;2613258;54;20399;-74
2023/05/17 09:45:56;;;;;;;15.53;14.10;;;16.60;14.00;;;;;;2613626;47;20496;-74
2023/05/17 09:51:47;;;;;;;15.50;14.40;;;17.70;12.80;;;;;;2612670;54;20371;-75
2023/05/17 10:01:26;;;;;;;14.17;13.10;;;16.30;13.60;;;;;;2612144;47;20423;-74
2023/05/17 10:07:19;;;;;;;14.60;13.17;;;15.20;17.80;;;;;;2610836;54;20399;-74
2023/05/17 10:13:10;;;;;;;15.77;14.53;;;14.90;16.70;;;;;;2613224;54;20940;-74
2023/05/17 10:19:00;;;;;;;14.20;13.20;;;17.00;11.10;;;;;;2613116;54;20391;-73
2023/05/17 10:24:50;;;;;;;15.27;14.00;;;15.30;12.70;;;;;;2611962;54;20957;-74
2023/05/17 10:30:38;;;;;;;14.40;13.40;;;16.10;11.20;;;;;;2611827;54;20402;-73
2023/05/17 10:36:26;;;;;;;14.83;13.70;;;15.20;15.80;;;;;;2612452;54;20423;-73
2023/05/17 10:42:16;;;;;;;15.20;14.30;;;15.70;14.80;;;;;;2612532;54;20367;-74
2023/05/17 10:48:05;;;;;;;14.63;13.73;;;16.90;11.30;;;;;;2609944;54;20447;-73
2023/05/17 10:54:01;;;;;;;15.80;14.63;;;16.30;11.30;;;;;;2609033;39;20732;-73
2023/05/17 10:59:59;;;;;;;14.60;13.70;;;15.50;12.80;;;;;;2608432;54;20394;-74
2023/05/17 11:06:08;;;;;;;12.93;12.13;;;17.40;9.90;;;;;;2608213;54;20415;-73
2023/05/17 11:12:05;;;;;;;14.07;13.13;;;15.70;10.20;;;;;;2613495;54;20415;-68
2023/05/17 11:17:52;;;;;;;15.53;14.57;;;17.90;6.80;;;;;;2613531;54;20372;-68
2023/05/17 11:23:43;;;;;;;14.93;13.73;;;17.60;5.50;;;;;;2608493;54;20303;-68
2023/05/17 11:29:30;;;;;;;12.73;11.83;;;17.80;3.30;;;;;;2609266;54;20395;-68
2023/05/17 11:32:24;;;;;;;13.70;12.80;;;18.10;4.60;;;;;;2608789;54;20408;-68
2023/05/17 11:34:51;;;;;;;16.30;15.27;;;16.70;6.50;;;;;;2613294;54;20166;-69
2023/05/17 11:40:39;;;;;;;16.50;15.17;;;16.20;9.70;;;;;;2613067;54;20371;-68
2023/05/17 11:46:27;;;;;;;14.43;13.60;;;17.40;5.40;;;;;;2611597;54;20359;-68
2023/05/17 11:52:17;;;;;;;14.93;14.07;;;18.00;2.30;;;;;;2611747;54;20363;-69
2023/05/17 12:01:26;;;;;;;14.17;13.00;;;17.90;2.70;;;;;;2609359;54;20386;-69
2023/05/17 12:07:14;;;;;;;14.77;13.67;;;18.30;2.50;;;;;;2613399;39;20543;-69
2023/05/17 12:13:02;;;;;;;14.97;13.43;;;17.10;1.60;;;;;;2612298;54;20357;-69
2023/05/17 12:18:50;;;;;;;15.40;14.10;;;18.10;3.00;;;;;;2613069;54;20395;-68
2023/05/17 12:24:40;;;;;;;14.60;13.73;;;18.40;1.00;;;;;;2608924;54;20356;-68
2023/05/17 12:30:28;;;;;;;15.53;14.73;;;18.70;1.00;;;;;;2608177;54;20391;-69
2023/05/17 12:36:16;;;;;;;15.97;14.37;;;19.10;1.00;;;;;;2608922;54;20161;-68
2023/05/17 12:42:05;;;;;;;15.33;14.37;;;18.70;1.00;;;;;;2607518;39;20969;-68
2023/05/17 12:47:53;;;;;;;15.80;14.90;;;17.00;2.90;;;;;;2607699;54;20387;-68
2023/05/17 13:00:17;;;;;;;15.50;14.10;;;19.30;1.00;;;;;;2606754;54;20448;-68
2023/05/17 13:06:08;;;;;;;16.47;15.10;;;18.90;1.00;;;;;;2608301;54;20436;-68
2023/05/17 13:12:00;;;;;;;18.10;16.30;;;16.90;1.00;;;;;;2612386;39;20827;-68
2023/05/17 13:17:48;;;;;;;17.40;16.17;;;17.80;1.00;;;;;;2611935;54;20949;-68
2023/05/17 13:23:42;;;;;;;16.93;15.60;;;18.60;1.00;;;;;;2606030;54;20398;-69
2023/05/17 13:29:31;;;;;;;15.20;14.30;;;18.00;1.00;;;;;;2606858;39;20873;-69
2023/05/17 13:35:17;;;;;;;15.67;14.20;;;18.50;1.00;;;;;;2608530;54;20415;-69
2023/05/17 13:41:08;;;;;;;15.97;14.87;;;17.90;1.00;;;;;;2606920;46;20238;-69
2023/05/17 13:46:55;;;;;;;14.60;13.90;;;16.40;1.00;;;;;;2608821;39;20838;-68
2023/05/17 13:52:43;;;;;;;15.73;14.77;;;16.60;1.00;;;;;;2611898;54;20729;-67
2023/05/17 14:01:53;;;;;;;18.27;16.40;;;18.90;1.00;;;;;;2612520;54;20380;-68
2023/05/17 14:07:42;;;;;;;16.03;15.13;;;18.00;1.00;;;;;;2611427;54;20197;-69
2023/05/17 14:13:29;;;;;;;16.30;15.40;;;17.80;1.00;;;;;;2613838;54;20355;-68
2023/05/17 14:16:14;;;;;;;16.77;15.87;;;16.90;1.00;;;;;;2612259;47;20427;-68
2023/05/17 14:18:40;;;;;;;16.27;15.20;;;16.90;1.00;;;;;;2612696;54;20158;-69
2023/05/17 14:24:27;;;;;;;16.20;15.20;;;17.00;1.00;;;;;;2611963;54;20130;-68
2023/05/17 14:30:15;;;;;;;17.37;16.20;;;18.20;1.00;;;;;;2613335;54;20134;-69
2023/05/17 14:36:03;;;;;;;16.13;14.80;;;18.40;1.00;;;;;;2609709;54;20656;-68
2023/05/17 14:41:51;;;;;;;17.27;16.17;;;17.30;1.00;;;;;;2610854;39;20797;-69
2023/05/17 14:47:38;;;;;;;16.47;15.67;;;18.10;1.00;;;;;;2609109;54;20158;-69
2023/05/17 14:53:28;;;;;;;18.07;16.50;;;18.20;1.00;;;;;;2610103;54;20126;-69
2023/05/17 15:02:41;;;;;;;18.20;16.90;;;19.10;1.00;;;;;;2613471;54;20948;-69
2023/05/17 15:08:28;;;;;;;16.80;15.60;;;18.70;1.00;;;;;;2607728;54;20376;-70
2023/05/17 15:14:23;;;;;;;16.03;14.87;;;17.30;1.00;;;;;;2609177;54;20616;-68
2023/05/17 15:20:11;;;;;;;17.07;16.00;;;16.60;1.00;;;;;;2609098;54;20391;-68
2023/05/17 15:25:58;;;;;;;17.73;16.20;;;15.80;1.00;;;;;;2610108;54;20366;-69
2023/05/17 15:31:46;;;;;;;18.40;16.97;;;16.30;1.30;;;;;;2609718;54;20137;-69
2023/05/17 15:37:34;;;;;;;17.03;16.03;;;16.90;1.10;;;;;;2611544;54;20126;-69
2023/05/17 15:43:21;;;;;;;17.33;16.27;;;17.80;1.00;;;;;;2609724;54;20158;-69
2023/05/17 15:49:09;;;;;;;17.57;16.30;;;18.00;1.00;;;;;;2609859;46;20399;-69
2023/05/17 15:54:57;;;;;;;16.20;14.80;;;18.00;1.00;;;;;;2610303;46;20161;-68
2023/05/17 15:58:10;;;;;;;16.37;15.37;;;17.50;1.00;;;;;;2609374;54;20917;-68
2023/05/17 16:00:36;;;;;;;16.83;15.20;;;18.10;1.00;;;;;;2611180;54;20201;-67
2023/05/17 16:06:24;;;;;;;16.87;15.37;;;18.60;1.00;;;;;;2610404;47;20435;-69
2023/05/17 16:12:12;;;;;;;16.27;15.17;;;18.00;1.00;;;;;;2609602;54;20234;-68
2023/05/17 16:17:59;;;;;;;16.43;15.30;;;18.00;1.00;;;;;;2609639;54;20150;-68
2023/05/17 16:23:48;;;;;;;16.80;15.37;;;18.20;1.00;;;;;;2610746;39;20515;-70
2023/05/17 16:29:38;;;;;;;16.03;14.93;;;18.40;1.00;;;;;;2614300;54;20507;-69
2023/05/17 16:35:26;;;;;;;19.50;17.73;;;16.30;1.00;;;;;;2610988;39;20848;-68
2023/05/17 16:41:14;;;;;;;18.60;17.20;;;15.60;1.00;;;;;;2609115;54;20126;-69
2023/05/17 16:47:02;;;;;;;15.90;14.80;;;16.20;1.00;;;;;;2609508;54;20175;-69
2023/05/17 16:52:50;;;;;;;17.43;16.30;;;16.50;1.00;;;;;;2608968;54;20407;-69
2023/05/17 17:02:41;;;;;;;17.60;16.00;;;16.50;1.00;;;;;;2609494;54;20462;-69
2023/05/17 17:08:28;;;;;;;16.93;15.70;;;15.80;1.00;;;;;;2609466;54;20421;-69
2023/05/17 17:14:16;;;;;;;16.60;15.60;;;15.80;1.00;;;;;;2612595;54;20126;-69
2023/05/17 17:20:05;;;;;;;17.93;16.33;;;15.60;1.00;;;;;;2609160;54;20367;-69
2023/05/17 17:25:53;;;;;;;16.80;15.80;;;15.10;1.50;;;;;;2610002;54;20415;-70
2023/05/17 17:31:41;;;;;;;16.97;15.53;;;14.90;3.20;;;;;;2609575;39;20553;-70
2023/05/17 17:37:28;;;;;;;17.03;15.30;;;14.90;4.00;;;;;;2611472;54;20126;-69
2023/05/17 17:43:16;;;;;;;18.70;17.10;;;14.60;4.60;;;;;;2608694;54;20122;-69
2023/05/17 17:49:04;;;;;;;16.43;15.13;;;14.50;5.50;;;;;;2609698;54;20697;-69
2023/05/17 17:54:51;;;;;;;16.70;15.47;;;14.20;5.80;;;;;;2610631;54;20154;-69
2023/05/17 17:58:11;;;;;;;17.93;16.20;;;14.30;5.90;;;;;;2608671;54;20411;-69
2023/05/17 18:00:37;;;;;;;16.80;15.33;;;14.20;6.50;;;;;;2608734;54;20150;-69
2023/05/17 18:06:25;;;;;;;18.13;16.30;;;14.10;6.60;;;;;;2610253;39;20633;-69
2023/05/17 18:12:13;;;;;;;16.53;15.33;;;13.90;7.10;;;;;;2609465;54;20191;-69
2023/05/17 18:18:00;;;;;;;15.87;14.77;;;13.70;7.90;;;;;;2610621;54;20131;-69
2023/05/17 18:23:48;;;;;;;15.63;14.33;;;13.40;8.30;;;;;;2610193;54;20189;-70
2023/05/17 18:29:35;;;;;;;16.53;15.10;;;13.30;8.90;;;;;;2614609;54;20161;-70
2023/05/17 18:35:23;;;;;;;17.90;16.20;;;13.10;9.70;;;;;;2610532;54;20712;-69
2023/05/17 18:41:11;;;;;;;15.97;14.37;;;13.00;10.70;;;;;;2609734;54;20126;-69
2023/05/17 18:46:58;;;;;;;16.03;14.67;;;12.80;10.80;;;;;;2609528;54;20243;-69
2023/05/17 18:52:46;;;;;;;20.93;16.53;;;12.70;12.00;;;;;;2610234;46;20142;-70
2023/05/17 19:08:28;;;;;;;16.07;15.03;;;12.30;13.40;;;;;;2613014;54;20370;-70
2023/05/17 19:14:15;;;;;;;15.73;14.37;;;12.20;14.50;;;;;;2614303;54;20173;-70
2023/05/17 19:20:03;;;;;;;14.73;13.57;;;11.90;16.60;;;;;;2614513;54;20247;-70
2023/05/17 19:25:53;;;;;;;14.83;13.83;;;11.80;17.40;;;;;;2609143;54;20446;-70
2023/05/17 19:31:41;;;;;;;16.07;14.90;;;11.70;19.20;;;;;;2608607;54;20387;-70
2023/05/17 19:37:29;;;;;;;16.13;15.10;;;11.50;20.90;;;;;;2610292;54;20760;-70
2023/05/17 19:43:17;;;;;;;16.00;14.83;;;11.40;24.30;;;;;;2609501;54;20134;-70
2023/05/17 19:49:05;;;;;;;17.77;16.47;;;11.30;25.60;;;;;;2608716;54;20142;-69
2023/05/17 19:54:52;;;;;;;17.20;15.63;;;11.20;28.80;;;;;;2609803;54;20198;-69
2023/05/17 19:57:55;;;;;;;15.80;14.67;;;11.00;31.50;;;;;;2610603;54;20472;-70
2023/05/17 20:14:01;;;;;;;16.37;14.77;;;10.70;43.70;;;;;;2607945;54;20467;-69
2023/05/17 20:19:50;;;;;;;16.67;15.40;;;10.50;49.60;;;;;;2609376;54;20118;-69
2023/05/17 20:25:38;;;;;;;16.00;14.80;;;10.40;57.00;;;;;;2609426;54;20935;-69
2023/05/17 20:31:26;;;;;;;16.53;15.17;;;10.20;65.60;;;;;;2613102;39;20780;-70
2023/05/17 20:37:13;;;;;;;15.70;14.60;;;10.20;72.20;;;;;;2610490;54;20375;-70
2023/05/17 20:43:02;;;;;;;15.43;14.40;;;10.10;80.20;;;;;;2612289;54;20150;-70
2023/05/17 20:48:52;;;;;;;16.30;15.10;;;9.90;90.10;;;;;;2610382;54;20471;-70
2023/05/17 20:54:40;;;;;;;15.80;14.80;;;9.80;99.80;;;;;;2610534;54;20371;-69
2023/05/17 21:03:59;;;;;;;14.20;13.20;;;9.80;98.20;;;;;;2613879;54;20782;-70
2023/05/17 21:09:46;;;;;;;16.80;15.20;;;9.70;99.40;;;;;;2610116;54;20590;-71
2023/05/17 21:15:35;;;;;;;15.90;14.90;;;9.70;99.90;;;;;;2610624;54;20159;-70
2023/05/17 21:21:23;;;;;;;15.57;14.67;;;9.50;99.90;;;;;;2610565;54;20378;-68
2023/05/17 21:27:11;;;;;;;14.57;13.60;;;9.30;99.90;;;;;;2608451;54;20123;-69
2023/05/17 21:32:58;;;;;;;14.67;13.47;;;9.20;99.90;;;;;;2613065;54;20115;-69
2023/05/17 21:38:46;;;;;;;14.73;13.70;;;9.20;99.90;;;;;;2609622;54;20150;-71
2023/05/17 21:44:34;;;;;;;15.20;14.10;;;9.10;99.90;;;;;;2611986;54;20143;-69
2023/05/17 21:50:21;;;;;;;15.53;14.20;;;9.00;99.90;;;;;;2611278;54;20684;-69
2023/05/17 21:56:10;;;;;;;15.70;14.60;;;8.90;99.90;;;;;;2612874;54;20238;-69
2023/05/17 21:59:27;;;;;;;15.03;13.60;;;8.80;99.90;;;;;;2611621;39;21228;-70
2023/05/17 22:01:54;;;;;;;14.70;13.60;;;8.70;99.90;;;;;;2610805;39;20831;-69
2023/05/17 22:07:42;;;;;;;16.87;13.60;;;8.70;99.90;;;;;;2612012;54;20355;-69
2023/05/17 22:13:31;;;;;;;15.10;13.60;;;8.60;99.90;;;;;;2609551;54;20362;-69
2023/05/17 22:19:18;;;;;;;13.80;12.90;;;8.50;99.90;;;;;;2609891;54;20371;-70
2023/05/17 22:25:07;;;;;;;13.93;12.77;;;8.40;99.90;;;;;;2611859;54;20127;-70
2023/05/17 22:30:55;;;;;;;16.33;14.30;;;8.30;99.90;;;;;;2614137;54;20394;-69
2023/05/17 22:36:43;;;;;;;13.53;12.60;;;8.10;99.90;;;;;;2610743;54;20387;-69
2023/05/17 22:42:31;;;;;;;13.50;12.40;;;8.10;99.90;;;;;;2608601;54;20139;-69
2023/05/17 22:48:19;;;;;;;13.77;12.60;;;8.00;99.90;;;;;;2613024;54;20130;-69
2023/05/17 22:54:06;;;;;;;13.90;12.50;;;8.00;99.90;;;;;;2612892;54;20130;-70
2023/05/17 23:03:54;;;;;;;16.53;12.37;;;7.90;99.90;;;;;;2611244;54;20826;-70
2023/05/17 23:09:41;;;;;;;14.50;13.17;;;7.60;99.90;;;;;;2613787;54;20398;-70
2023/05/17 23:15:33;;;;;;;13.80;12.37;;;7.60;99.90;;;;;;2612947;54;20121;-69
2023/05/17 23:21:20;;;;;;;13.20;12.03;;;7.50;99.90;;;;;;2613878;39;20837;-70
2023/05/17 23:27:08;;;;;;;15.70;11.90;;;7.50;99.90;;;;;;2612892;54;20429;-69
2023/05/17 23:32:56;;;;;;;12.13;11.13;;;7.60;99.90;;;;;;2614589;54;20688;-70
2023/05/17 23:38:44;;;;;;;12.70;11.50;;;7.60;99.90;;;;;;2614075;54;20219;-69
2023/05/17 23:44:33;;;;;;;13.20;11.90;;;7.60;99.90;;;;;;2614585;31;20668;-70
2023/05/17 23:50:21;;;;;;;13.77;11.30;;;7.50;99.90;;;;;;2613570;54;20374;-70
2023/05/17 23:56:08;;;;;;;11.73;10.83;;;7.40;99.90;;;;;;2614168;46;20142;-69
2023/05/17 23:59:28;;;;;;;13.43;11.90;;;7.40;99.90;;;;;;2612497;54;20494;-69
